Lunenburg, Canada
Current Conditions -  °F | °C
As of 8:00 AM on Sunday 21 Dec 2014 (Local Time) from CYZX Reporting Station
Overcast Overcast  
Wind Chill: 30°   Ceiling: 2100
Heat Index: 30°   Visibility: 15mi
Dew Point: 25°   Wind: 2mph
Humidity: 80%   Direction: 70°ENE
Pressure: 30.36"   Gusts: NA
Location:  44.38°N, 64.32°W
Report Text: CYZX 211200Z 07002KT 15SM OVC021 M01/M04 A3036 RMK SC8 WNDY HILL 13004KT SLP282
Loading
Personal Weather Stations






























Interactive Weather Map New forecast layout! Learn more

10-Day Weather Forecast

Advertisements
Track Severe Weather on mobile